Dazey, North Dakota
Current Conditions -  °F | °C
As of 11:55 AM on Friday 24 Oct 2014 (Local Time) from KBAC Reporting Station
Clear Clear  
Wind Chill: 63°   Ceiling: Unl
Heat Index: 63°   Visibility: 10mi
Dew Point: 43°   Wind: 10mph
Humidity: 48%   Direction: 290°WNW
Pressure: 29.83"   Gusts: NA
Location:  47.19°N, 98.2°W
Report Text: KBAC 241655Z AUTO 29009KT 10SM CLR 17/06 A2983 RMK AO2
Loading
Personal Weather Stations






























Interactive Weather Map
Tropical Storm Tracking
New forecast layout! Learn more

10-Day Weather Forecast

Advertisements
Track Severe Weather on mobile